Latest Weather Observations for Whyalla

IDS60801

Issued at 6:31 pm CDT Sunday 14 February 2016 (issued every 30 minutes, with the page automatically refreshed every 10 minutes)

About weather observations | Map of weather stations | Latest weather observations for SA | Other Formats
Station Details ID: 018120 Name: WHYALLA AERO Lat: -33.05 Lon: 137.52 Height: 6.5 m
Data from the previous 72 hours. | See also: Recent months at Whyalla
Date/Time
CDT
Temp
°C
App
Temp
°C
Dew
Point
Rel
Hum
%
Delta-T
°C
Wind Press
QNH
hPa
Press
MSL
hPa
Rain
since 9 am
mm
Dir
 
Spd
km/h
Gust
km/h
Spd
kts
Gust
kts
14/06:30pm 22.1 14.7 11.2 50 6.0 SSW 41 52 22 28 1014.4 1014.3 0.0
14/06:00pm 23.0 16.5 12.9 53 5.8 SSW 39 48 21 26 1014.3 1014.2 0.0
14/05:30pm 23.8 17.1 12.4 48 6.5 SSW 39 48 21 26 1014.2 1014.1 0.0
14/05:00pm 23.4 18.3 13.6 54 5.7 S 33 44 18 24 1014.2 1014.1 0.0
14/04:30pm 24.2 19.2 14.0 53 6.0 S 33 44 18 24 1014.4 1014.3 0.0
14/04:00pm 25.3 19.5 9.6 37 8.6 S 30 39 16 21 1014.5 1014.4 0.0
14/03:30pm 24.6 19.1 10.5 41 7.8 S 30 39 16 21 1014.7 1014.6 0.0
14/03:00pm 24.3 18.6 8.3 36 8.5 S 28 35 15 19 1015.1 1015.0 0.0
14/02:30pm 23.6 19.0 12.3 49 6.4 SSE 28 39 15 21 1015.6 1015.5 0.0
14/02:00pm 22.9 17.6 12.5 52 5.9 S 32 39 17 21 1015.6 1015.5 0.0
14/01:30pm 23.1 18.6 12.7 52 5.9 SSE 28 43 15 23 1015.8 1015.7 0.0
14/01:14pm 23.1 18.7 14.1 57 5.3 S 30 48 16 26 1015.8 1015.7 0.0
14/01:00pm 22.9 18.9 14.2 58 5.1 SSE 28 37 15 20 1015.9 1015.8 0.0
14/12:30pm 22.8 18.5 13.3 55 5.5 SSE 28 41 15 22 1016.1 1016.0 0.0
14/12:00pm 22.4 18.3 13.7 58 5.0 S 28 37 15 20 1016.3 1016.2 0.0
14/11:30am 22.5 18.8 13.8 58 5.1 SSE 26 35 14 19 1016.5 1016.4 0.0
14/11:00am 21.7 18.3 13.6 60 4.7 SSE 24 33 13 18 1016.5 1016.4 0.0
14/10:30am 22.3 19.1 14.2 60 4.7 SSE 24 33 13 18 1016.5 1016.4 0.0
14/10:00am 20.9 18.2 13.4 62 4.3 SSE 20 32 11 17 1016.6 1016.5 0.0
14/09:30am 21.0 18.0 13.7 63 4.2 SSE 22 30 12 16 1016.5 1016.4 0.0
14/09:00am 21.2 17.9 13.9 63 4.2 SSE 24 33 13 18 1016.1 1016.0 0.0
14/08:30am 20.6 17.4 14.3 67 3.7 SSE 24 33 13 18 1015.9 1015.8 0.0
14/08:00am 20.1 17.0 14.5 70 3.3 SSE 24 32 13 17 1015.6 1015.5 0.0
14/07:30am 19.9 17.2 14.5 71 3.1 SSE 22 32 12 17 1015.2 1015.1 0.0
14/07:00am 19.7 17.0 14.7 73 2.9 SSE 22 33 12 18 1014.7 1014.6 0.0
14/06:30am 19.6 16.9 14.6 73 2.9 SSE 22 32 12 17 1014.1 1014.0 0.0
14/06:00am 19.7 17.0 14.5 72 3.0 SSE 22 28 12 15 1013.6 1013.5 0.0
14/05:30am 19.8 16.7 13.5 67 3.6 SSE 22 32 12 17 1013.4 1013.3 0.0
14/05:00am 20.0 16.7 14.1 69 3.4 SSE 24 35 13 19 1013.1 1013.0 0.0
14/04:30am 20.0 16.7 15.0 73 2.9 SSE 26 35 14 19 1012.9 1012.8 0.0
14/04:00am 20.5 17.7 15.3 72 3.1 SSE 24 37 13 20 1012.8 1012.7 0.0
14/03:30am 20.7 18.0 15.5 72 3.1 S 24 33 13 18 1012.8 1012.7 0.0
14/03:00am 20.7 18.2 16.1 75 2.8 S 24 35 13 19 1013.0 1012.9 0.0
14/02:30am 20.5 18.1 15.5 73 3.0 S 22 35 12 19 1013.1 1013.0 0.0
14/02:00am 20.7 17.7 15.9 74 2.9 S 26 37 14 20 1013.3 1013.2 0.0
14/01:30am 20.7 18.1 15.9 74 2.9 S 24 30 13 16 1013.5 1013.4 0.0
14/01:00am 20.8 17.5 16.0 74 2.9 S 28 37 15 20 1013.6 1013.5 0.0
14/12:30am 20.8 17.5 16.0 74 2.9 S 28 39 15 21 1013.7 1013.6 0.0
14/12:00am 20.9 17.2 16.9 78 2.4 SSW 32 41 17 22 1013.7 1013.6 0.0
 
Date/Time
CDT
Temp
°C
App
Temp
°C
Dew
Point
Rel
Hum
%
Delta-T
°C
Wind Press
QNH
hPa
Press
MSL
hPa
Rain
since 9 am
mm
Dir
 
Spd
km/h
Gust
km/h
Spd
kts
Gust
kts
13/11:30pm 21.0 17.1 17.0 78 2.4 SSW 33 46 18 25 1013.8 1013.7 0.0
13/11:00pm 21.3 17.7 17.1 77 2.6 SSW 32 43 17 23 1013.8 1013.7 0.0
13/10:30pm 21.3 18.8 17.1 77 2.6 SSW 26 39 14 21 1013.9 1013.8 0.0
13/10:00pm 21.4 18.3 17.4 78 2.5 SSW 30 39 16 21 1013.7 1013.6 0.0
13/09:30pm 21.6 18.2 17.8 79 2.4 S 32 41 17 22 1013.4 1013.3 0.0
13/09:00pm 21.8 19.3 18.0 79 2.4 SSW 28 37 15 20 1013.2 1013.1 0.0
13/08:30pm 22.0 18.4 17.6 76 2.7 SSW 33 46 18 25 1012.7 1012.6 0.0
13/08:00pm 22.3 18.2 18.3 78 2.5 S 37 50 20 27 1012.3 1012.2 0.0
13/07:30pm 22.5 18.5 18.5 78 2.5 S 37 48 20 26 1011.9 1011.8 0.0
13/07:00pm 23.4 19.9 18.7 75 3.0 S 35 52 19 28 1011.7 1011.6 0.0
13/06:53pm 23.5 20.3 18.6 74 3.1 S 33 52 18 28 1011.6 1011.5 0.0
13/06:30pm 24.1 21.2 19.2 74 3.1 S 33 48 18 26 1011.3 1011.2 0.0
13/06:00pm 24.0 20.0 19.3 75 3.0 S 39 52 21 28 1010.9 1010.8 0.0
13/05:30pm 24.0 19.8 18.9 73 3.2 S 39 52 21 28 1010.8 1010.7 0.0
13/05:00pm 24.8 21.0 19.0 70 3.7 S 37 48 20 26 1010.9 1010.8 0.0
13/04:30pm 25.6 21.7 19.5 69 3.9 S 39 52 21 28 1010.6 1010.5 0.0
13/04:00pm 27.7 22.2 14.7 45 7.8 S 37 48 20 26 1010.3 1010.2 0.0
13/03:30pm 26.3 23.2 19.7 67 4.3 S 35 46 19 25 1010.4 1010.3 0.0
13/03:00pm 26.7 23.6 18.3 60 5.3 S 32 41 17 22 1010.4 1010.3 0.0
13/02:30pm 28.5 25.8 16.7 48 7.4 SSE 26 33 14 18 1010.8 1010.7 0.0
13/02:00pm 29.0 26.5 16.2 46 7.9 S 24 30 13 16 1011.0 1010.9 0.0
13/01:30pm 30.2 27.3 13.0 34 10.2 SSE 20 24 11 13 1011.1 1011.0 0.0
13/01:00pm 30.0 27.4 13.7 37 9.8 SSE 20 28 11 15 1011.4 1011.3 0.0
13/12:30pm 29.0 26.1 12.8 36 9.5 S 20 28 11 15 1011.7 1011.6 0.0
13/12:00pm 28.0 26.1 14.3 43 8.2 SSE 17 22 9 12 1011.9 1011.8 0.0
13/11:30am 26.3 25.6 17.4 58 5.6 SE 17 24 9 13 1012.0 1011.9 0.0
13/11:00am 26.3 25.6 16.5 54 6.0 SSE 15 20 8 11 1012.1 1012.0 0.0
13/10:30am 25.6 24.6 16.5 57 5.6 SSE 17 20 9 11 1012.3 1012.2 0.0
13/10:00am 26.6 27.0 14.7 48 7.1 S 6 9 3 5 1012.3 1012.2 0.0
13/09:30am 25.4 24.9 14.8 52 6.3 SSW 11 15 6 8 1012.5 1012.4 0.0
13/09:00am 23.9 21.8 11.3 45 7.1 SW 13 15 7 8 1012.4 1012.3 0.0
13/08:30am 21.4 19.1 7.3 40 7.3 WSW 9 13 5 7 1012.4 1012.3 0.0
13/08:00am 18.2 16.3 7.6 50 5.4 W 7 11 4 6 1012.0 1011.9 0.0
13/07:30am 16.0 13.6 7.2 56 4.4 WSW 9 13 5 7 1011.9 1011.8 0.0
13/07:00am 14.7 12.4 7.3 61 3.6 NNW 9 13 5 7 1011.2 1011.1 0.0
13/06:30am 14.5 12.7 7.8 64 3.3 WNW 7 15 4 8 1011.2 1011.1 0.0
13/06:00am 14.8 12.7 8.1 64 3.4 N 9 13 5 7 1011.0 1010.9 0.0
13/05:30am 15.1 12.9 7.9 62 3.6 NNW 9 13 5 7 1010.9 1010.8 0.0
13/05:00am 15.1 13.0 8.1 63 3.5 NNW 9 11 5 6 1010.9 1010.8 0.0
13/04:30am 15.4 13.3 8.2 62 3.6 NNW 9 9 5 5 1010.9 1010.8 0.0
13/04:00am 16.2 14.5 7.7 57 4.3 WNW 6 7 3 4 1010.8 1010.7 0.0
13/03:30am 16.6 14.5 8.1 57 4.3 WSW 9 11 5 6 1011.0 1010.9 0.0
13/03:00am 16.1 14.6 9.3 64 3.5 WSW 7 9 4 5 1011.1 1011.0 0.0
13/02:30am 16.5 15.0 9.2 62 3.8 WSW 7 11 4 6 1011.2 1011.1 0.0
13/02:00am 16.8 14.9 10.4 66 3.4 W 11 15 6 8 1011.4 1011.3 0.0
13/01:30am 17.3 15.9 10.9 66 3.4 NNW 9 9 5 5 1011.3 1011.2 0.0
13/01:00am 17.5 16.2 11.3 67 3.4 NNW 9 11 5 6 1011.6 1011.5 0.0
13/12:30am 17.3 16.2 11.8 70 3.0 NNW 9 11 5 6 1011.9 1011.8 0.0
13/12:00am 18.2 17.7 12.6 70 3.1 NW 7 9 4 5 1012.3 1012.2 0.0
 
Date/Time
CDT
Temp
°C
App
Temp
°C
Dew
Point
Rel
Hum
%
Delta-T
°C
Wind Press
QNH
hPa
Press
MSL
hPa
Rain
since 9 am
mm
Dir
 
Spd
km/h
Gust
km/h
Spd
kts
Gust
kts
12/11:30pm 19.6 19.9 13.5 68 3.5 W 4 9 2 5 1012.5 1012.4 0.0
12/11:00pm 19.9 18.6 13.8 68 3.5 WSW 13 15 7 8 1012.5 1012.4 0.0
12/10:30pm 21.1 20.5 14.7 67 3.8 SW 11 13 6 7 1012.8 1012.7 0.0
12/10:00pm 22.1 21.0 15.2 65 4.1 SSW 15 20 8 11 1012.8 1012.7 0.0
12/09:30pm 22.8 21.2 16.4 67 3.9 SSW 20 28 11 15 1012.3 1012.2 0.0
12/09:00pm 23.2 21.8 18.7 76 2.8 S 24 33 13 18 1012.0 1011.9 0.0
12/08:30pm 23.7 19.8 16.5 64 4.4 S 32 39 17 21 1011.5 1011.4 0.0
12/08:00pm 24.1 21.2 17.1 65 4.3 S 28 39 15 21 1011.1 1011.0 0.0
12/07:30pm 24.9 21.8 17.4 63 4.7 S 30 39 16 21 1010.8 1010.7 0.0
12/07:00pm 26.3 23.8 17.1 57 5.7 S 26 35 14 19 1010.6 1010.5 0.0
12/06:30pm 27.6 25.5 16.2 49 7.0 S 22 28 12 15 1010.4 1010.3 0.0
12/06:00pm 28.5 26.7 16.1 47 7.7 S 20 26 11 14 1010.4 1010.3 0.0
12/05:30pm 28.2 25.7 15.1 44 8.0 SSE 22 26 12 14 1010.4 1010.3 0.0
12/05:00pm 28.3 26.1 14.9 44 8.1 SSE 20 26 11 14 1010.5 1010.4 0.0
12/04:30pm 28.5 25.7 14.3 41 8.5 S 22 28 12 15 1010.6 1010.5 0.0
12/04:00pm 27.8 25.6 17.0 51 6.8 S 24 35 13 19 1010.8 1010.7 0.0
12/03:30pm 30.1 27.6 14.2 38 9.6 SSE 20 28 11 15 1010.9 1010.8 0.0
12/03:00pm 29.4 26.4 11.9 34 10.2 SSE 19 26 10 14 1011.2 1011.1 0.0
12/02:30pm 29.1 25.8 11.6 33 10.1 SSE 20 26 11 14 1011.6 1011.5 0.0
12/02:00pm 28.1 25.1 12.5 38 9.1 SSE 20 28 11 15 1012.1 1012.0 0.0
12/01:30pm 28.3 26.0 14.2 42 8.5 SSE 19 24 10 13 1012.5 1012.4 0.0
12/01:00pm 27.0 24.5 14.1 45 7.7 S 20 26 11 14 1012.9 1012.8 0.0
12/12:30pm 25.7 24.4 15.7 54 6.1 SSE 17 24 9 13 1013.2 1013.1 0.0
12/12:00pm 24.9 23.6 15.8 57 5.5 S 17 26 9 14 1013.6 1013.5 0.0
12/11:30am 25.4 23.8 16.0 56 5.7 S 19 24 10 13 1013.8 1013.7 0.0
12/11:00am 24.0 22.3 16.3 62 4.7 S 20 28 11 15 1014.0 1013.9 0.0
12/10:30am 23.9 22.7 17.4 67 4.0 S 20 28 11 15 1014.2 1014.1 0.0
12/10:00am 23.1 21.4 17.3 70 3.6 S 22 30 12 16 1014.5 1014.4 0.0
12/09:30am 21.9 19.7 17.9 78 2.5 SSW 26 32 14 17 1014.7 1014.6 0.0
12/09:00am 21.2 18.9 17.6 80 2.2 SSW 26 32 14 17 1014.7 1014.6 0.0
12/08:30am 20.7 19.6 17.7 83 1.8 SSW 20 28 11 15 1014.7 1014.6 0.0
12/08:00am 19.4 18.7 17.4 88 1.2 SSW 17 24 9 13 1014.6 1014.5 0.0
12/07:30am 18.1 17.9 16.8 92 0.8 SW 13 17 7 9 1014.5 1014.4 0.0
12/07:00am 17.1 17.0 16.1 94 0.6 SW 11 13 6 7 1014.2 1014.1 0.0
12/06:30am 17.1 16.9 15.8 92 0.8 SW 11 13 6 7 1013.8 1013.7 0.0
12/06:00am 17.9 17.2 16.4 91 0.9 SW 15 19 8 10 1013.8 1013.7 0.0
12/05:30am 18.1 17.1 16.6 91 0.9 SSW 17 20 9 11 1013.5 1013.4 0.0
12/05:00am 18.2 16.8 16.5 90 1.0 SSW 19 22 10 12 1013.4 1013.3 0.0
12/04:30am 18.1 17.0 16.4 90 1.0 SW 17 20 9 11 1013.4 1013.3 0.0
12/04:00am 18.4 17.4 16.6 89 1.1 SSW 17 20 9 11 1013.5 1013.4 0.0
12/03:30am 18.5 17.5 16.5 88 1.2 SW 17 20 9 11 1013.4 1013.3 0.0
12/03:00am 18.8 17.4 16.6 87 1.3 SW 19 26 10 14 1013.9 1013.8 0.0
12/02:30am 19.0 18.4 16.6 86 1.4 SSW 15 20 8 11 1013.8 1013.7 0.0
12/02:00am 19.4 17.8 16.6 84 1.7 SSW 20 24 11 13 1014.2 1014.1 0.0
12/01:30am 19.7 18.1 16.5 82 1.9 SSW 20 24 11 13 1014.5 1014.4 0.0
12/01:00am 20.2 18.8 17.0 82 1.9 SSW 20 26 11 14 1014.7 1014.6 0.0
12/12:30am 21.0 18.9 17.2 79 2.3 SSW 24 33 13 18 1014.7 1014.6 0.0
12/12:00am 21.5 18.8 16.5 73 3.0 SSW 26 41 14 22 1014.9 1014.8 0.0
 
Date/Time
CDT
Temp
°C
App
Temp
°C
Dew
Point
Rel
Hum
%
Delta-T
°C
Wind Press
QNH
hPa
Press
MSL
hPa
Rain
since 9 am
mm
Dir
 
Spd
km/h
Gust
km/h
Spd
kts
Gust
kts
11/11:30pm 22.2 18.2 15.1 64 4.2 SSW 30 39 16 21 1014.9 1014.8 0.0
11/11:00pm 21.9 19.9 17.5 76 2.7 SSW 24 30 13 16 1015.0 1014.9 0.0
11/10:30pm 22.2 19.6 16.9 72 3.2 SSW 26 35 14 19 1014.8 1014.7 0.0
11/10:00pm 22.8 19.7 16.6 68 3.8 SSW 28 41 15 22 1014.5 1014.4 0.0
11/09:30pm 23.4 19.5 15.5 61 4.7 SSW 30 41 16 22 1013.9 1013.8 0.0
11/09:00pm 24.3 19.7 13.5 51 6.3 SSW 30 41 16 22 1013.5 1013.4 0.0
11/08:30pm 25.2 20.6 13.4 48 6.9 SSW 30 41 16 22 1012.9 1012.8 0.0
11/08:00pm 25.8 21.5 15.5 53 6.2 SSW 32 41 17 22 1012.6 1012.5 0.0
11/07:30pm 26.1 21.9 16.1 54 6.1 SSW 33 44 18 24 1012.1 1012.0 0.0
11/07:00pm 27.4 22.8 16.1 50 7.0 SSW 35 44 19 24 1011.9 1011.8 0.0

Other Formats:

Comma delimited format used in spreadsheet applications
http://www.bom.gov.au/fwo/IDS60801/IDS60801.95664.axf

JavaScript Object Notation format (JSON) in row-major order
http://www.bom.gov.au/fwo/IDS60801/IDS60801.95664.json